sensor_id;sensor_type;location;lat;lon;timestamp;P1;durP1;ratioP1;P2;durP2;ratioP2
56457;SDS011;42360;42.918;12.366;2022-07-06T00:01:47;8.75;;;2.72;;
56457;SDS011;42360;42.918;12.366;2022-07-06T00:04:13;7.93;;;3.10;;
56457;SDS011;42360;42.918;12.366;2022-07-06T00:06:39;5.15;;;2.45;;
56457;SDS011;42360;42.918;12.366;2022-07-06T00:09:05;4.90;;;2.55;;
56457;SDS011;42360;42.918;12.366;2022-07-06T00:11:31;5.20;;;2.50;;
56457;SDS011;42360;42.918;12.366;2022-07-06T00:13:57;5.97;;;3.03;;
56457;SDS011;42360;42.918;12.366;2022-07-06T00:16:23;3.30;;;2.40;;
56457;SDS011;42360;42.918;12.366;2022-07-06T00:18:49;4.78;;;2.90;;
56457;SDS011;42360;42.918;12.366;2022-07-06T00:21:15;7.03;;;2.53;;
56457;SDS011;42360;42.918;12.366;2022-07-06T00:23:41;5.22;;;2.50;;
56457;SDS011;42360;42.918;12.366;2022-07-06T00:26:07;5.75;;;2.90;;
56457;SDS011;42360;42.918;12.366;2022-07-06T00:28:32;4.75;;;2.85;;
56457;SDS011;42360;42.918;12.366;2022-07-06T00:30:58;4.38;;;2.53;;
56457;SDS011;42360;42.918;12.366;2022-07-06T00:33:24;4.30;;;2.40;;
56457;SDS011;42360;42.918;12.366;2022-07-06T00:35:50;2.95;;;2.47;;
56457;SDS011;42360;42.918;12.366;2022-07-06T00:38:16;8.05;;;3.20;;
56457;SDS011;42360;42.918;12.366;2022-07-06T00:40:41;9.52;;;2.65;;
56457;SDS011;42360;42.918;12.366;2022-07-06T00:43:07;5.03;;;2.63;;
56457;SDS011;42360;42.918;12.366;2022-07-06T00:45:33;5.40;;;2.50;;
56457;SDS011;42360;42.918;12.366;2022-07-06T00:47:59;9.15;;;3.00;;
56457;SDS011;42360;42.918;12.366;2022-07-06T00:50:25;7.00;;;2.28;;
56457;SDS011;42360;42.918;12.366;2022-07-06T00:53:00;2.47;;;2.28;;
56457;SDS011;42360;42.918;12.366;2022-07-06T00:55:30;8.73;;;3.22;;
56457;SDS011;42360;42.918;12.366;2022-07-06T00:58:00;4.88;;;2.35;;
56457;SDS011;42360;42.918;12.366;2022-07-06T01:00:27;5.13;;;2.88;;
56457;SDS011;42360;42.918;12.366;2022-07-06T01:02:53;6.10;;;2.60;;
56457;SDS011;42360;42.918;12.366;2022-07-06T01:05:19;7.60;;;2.80;;
56457;SDS011;42360;42.918;12.366;2022-07-06T01:07:46;5.53;;;2.78;;
56457;SDS011;42360;42.918;12.366;2022-07-06T01:10:13;4.70;;;2.28;;
56457;SDS011;42360;42.918;12.366;2022-07-06T01:12:40;7.20;;;2.90;;
56457;SDS011;42360;42.918;12.366;2022-07-06T01:15:08;3.70;;;2.28;;
56457;SDS011;42360;42.918;12.366;2022-07-06T01:17:38;5.43;;;2.65;;
56457;SDS011;42360;42.918;12.366;2022-07-06T01:22:36;4.72;;;2.60;;
56457;SDS011;42360;42.918;12.366;2022-07-06T01:25:03;6.85;;;2.90;;
56457;SDS011;42360;42.918;12.366;2022-07-06T01:27:30;5.82;;;2.75;;
56457;SDS011;42360;42.918;12.366;2022-07-06T01:29:55;3.40;;;2.50;;
56457;SDS011;42360;42.918;12.366;2022-07-06T01:32:21;3.75;;;2.45;;
56457;SDS011;42360;42.918;12.366;2022-07-06T01:34:47;4.03;;;2.33;;
56457;SDS011;42360;42.918;12.366;2022-07-06T01:37:12;2.67;;;2.38;;
56457;SDS011;42360;42.918;12.366;2022-07-06T01:39:38;5.13;;;2.45;;
56457;SDS011;42360;42.918;12.366;2022-07-06T01:42:03;4.82;;;2.47;;
56457;SDS011;42360;42.918;12.366;2022-07-06T01:44:30;6.45;;;2.85;;
56457;SDS011;42360;42.918;12.366;2022-07-06T01:46:57;5.72;;;2.97;;
56457;SDS011;42360;42.918;12.366;2022-07-06T01:49:22;5.60;;;2.78;;
56457;SDS011;42360;42.918;12.366;2022-07-06T01:51:48;5.50;;;2.80;;
56457;SDS011;42360;42.918;12.366;2022-07-06T01:54:14;5.78;;;2.95;;
56457;SDS011;42360;42.918;12.366;2022-07-06T01:56:39;4.97;;;2.95;;
56457;SDS011;42360;42.918;12.366;2022-07-06T01:59:05;6.65;;;2.83;;
56457;SDS011;42360;42.918;12.366;2022-07-06T02:01:31;5.75;;;2.80;;
56457;SDS011;42360;42.918;12.366;2022-07-06T02:03:56;3.35;;;3.00;;
56457;SDS011;42360;42.918;12.366;2022-07-06T02:06:22;3.53;;;3.10;;
56457;SDS011;42360;42.918;12.366;2022-07-06T02:08:47;4.70;;;3.30;;
56457;SDS011;42360;42.918;12.366;2022-07-06T02:11:13;3.53;;;2.63;;
56457;SDS011;42360;42.918;12.366;2022-07-06T02:13:39;4.53;;;2.78;;
56457;SDS011;42360;42.918;12.366;2022-07-06T02:16:05;4.30;;;2.50;;
56457;SDS011;42360;42.918;12.366;2022-07-06T02:18:30;5.05;;;2.70;;
56457;SDS011;42360;42.918;12.366;2022-07-06T02:20:56;5.47;;;3.08;;
56457;SDS011;42360;42.918;12.366;2022-07-06T02:23:22;4.90;;;2.80;;
56457;SDS011;42360;42.918;12.366;2022-07-06T02:25:48;4.30;;;2.50;;
56457;SDS011;42360;42.918;12.366;2022-07-06T02:28:13;5.32;;;2.60;;
56457;SDS011;42360;42.918;12.366;2022-07-06T02:30:39;4.28;;;2.58;;
56457;SDS011;42360;42.918;12.366;2022-07-06T02:33:04;11.52;;;3.55;;
56457;SDS011;42360;42.918;12.366;2022-07-06T02:35:30;10.80;;;3.10;;
56457;SDS011;42360;42.918;12.366;2022-07-06T02:37:55;5.63;;;3.15;;
56457;SDS011;42360;42.918;12.366;2022-07-06T02:40:21;5.75;;;2.85;;
56457;SDS011;42360;42.918;12.366;2022-07-06T02:42:47;5.88;;;2.70;;
56457;SDS011;42360;42.918;12.366;2022-07-06T02:45:13;4.80;;;2.90;;
56457;SDS011;42360;42.918;12.366;2022-07-06T02:47:38;4.47;;;2.70;;
56457;SDS011;42360;42.918;12.366;2022-07-06T02:50:04;6.03;;;3.15;;
56457;SDS011;42360;42.918;12.366;2022-07-06T02:52:30;3.78;;;2.50;;
56457;SDS011;42360;42.918;12.366;2022-07-06T02:54:56;4.53;;;3.10;;
56457;SDS011;42360;42.918;12.366;2022-07-06T02:57:22;3.45;;;2.80;;
56457;SDS011;42360;42.918;12.366;2022-07-06T02:59:47;4.22;;;3.00;;
56457;SDS011;42360;42.918;12.366;2022-07-06T03:02:17;3.00;;;2.55;;
56457;SDS011;42360;42.918;12.366;2022-07-06T03:04:43;3.78;;;2.95;;
56457;SDS011;42360;42.918;12.366;2022-07-06T03:07:08;5.15;;;2.60;;
56457;SDS011;42360;42.918;12.366;2022-07-06T03:09:34;5.80;;;2.92;;
56457;SDS011;42360;42.918;12.366;2022-07-06T03:12:00;4.05;;;2.53;;
56457;SDS011;42360;42.918;12.366;2022-07-06T03:14:26;4.30;;;2.80;;
56457;SDS011;42360;42.918;12.366;2022-07-06T03:16:52;7.57;;;3.17;;
56457;SDS011;42360;42.918;12.366;2022-07-06T03:19:17;6.97;;;2.90;;
56457;SDS011;42360;42.918;12.366;2022-07-06T03:21:43;4.22;;;2.85;;
56457;SDS011;42360;42.918;12.366;2022-07-06T03:24:09;4.82;;;2.72;;
56457;SDS011;42360;42.918;12.366;2022-07-06T03:26:34;9.55;;;3.13;;
56457;SDS011;42360;42.918;12.366;2022-07-06T03:29:00;4.50;;;2.92;;
56457;SDS011;42360;42.918;12.366;2022-07-06T03:31:25;3.40;;;3.10;;
56457;SDS011;42360;42.918;12.366;2022-07-06T03:33:52;4.93;;;2.60;;
56457;SDS011;42360;42.918;12.366;2022-07-06T03:36:17;5.07;;;2.60;;
56457;SDS011;42360;42.918;12.366;2022-07-06T03:38:43;6.32;;;2.85;;
56457;SDS011;42360;42.918;12.366;2022-07-06T03:41:09;5.75;;;2.80;;
56457;SDS011;42360;42.918;12.366;2022-07-06T03:43:34;3.22;;;2.90;;
56457;SDS011;42360;42.918;12.366;2022-07-06T03:46:00;5.22;;;3.05;;
56457;SDS011;42360;42.918;12.366;2022-07-06T03:48:26;3.78;;;2.88;;
56457;SDS011;42360;42.918;12.366;2022-07-06T03:50:51;8.27;;;3.08;;
56457;SDS011;42360;42.918;12.366;2022-07-06T03:53:17;6.20;;;3.80;;
56457;SDS011;42360;42.918;12.366;2022-07-06T03:55:43;5.05;;;3.58;;
56457;SDS011;42360;42.918;12.366;2022-07-06T03:58:08;5.82;;;3.17;;
56457;SDS011;42360;42.918;12.366;2022-07-06T04:00:34;7.80;;;3.20;;
56457;SDS011;42360;42.918;12.366;2022-07-06T04:03:00;8.30;;;3.60;;
56457;SDS011;42360;42.918;12.366;2022-07-06T04:05:26;10.30;;;3.42;;
56457;SDS011;42360;42.918;12.366;2022-07-06T04:07:51;7.57;;;3.33;;
56457;SDS011;42360;42.918;12.366;2022-07-06T04:10:18;7.28;;;3.35;;
56457;SDS011;42360;42.918;12.366;2022-07-06T04:12:44;7.85;;;3.17;;
56457;SDS011;42360;42.918;12.366;2022-07-06T04:15:10;7.47;;;3.90;;
56457;SDS011;42360;42.918;12.366;2022-07-06T04:17:37;7.60;;;3.38;;
56457;SDS011;42360;42.918;12.366;2022-07-06T04:20:19;6.60;;;3.47;;
56457;SDS011;42360;42.918;12.366;2022-07-06T04:22:45;4.95;;;3.20;;
56457;SDS011;42360;42.918;12.366;2022-07-06T04:25:11;7.57;;;3.60;;
56457;SDS011;42360;42.918;12.366;2022-07-06T04:27:36;5.28;;;3.08;;
56457;SDS011;42360;42.918;12.366;2022-07-06T04:30:03;6.88;;;2.90;;
56457;SDS011;42360;42.918;12.366;2022-07-06T04:32:30;7.22;;;3.13;;
56457;SDS011;42360;42.918;12.366;2022-07-06T04:34:55;9.10;;;3.13;;
56457;SDS011;42360;42.918;12.366;2022-07-06T04:37:21;9.13;;;3.65;;
56457;SDS011;42360;42.918;12.366;2022-07-06T04:39:47;5.53;;;2.90;;
56457;SDS011;42360;42.918;12.366;2022-07-06T04:42:12;3.75;;;3.10;;
56457;SDS011;42360;42.918;12.366;2022-07-06T04:44:38;3.97;;;3.20;;
56457;SDS011;42360;42.918;12.366;2022-07-06T04:47:04;7.43;;;3.30;;
56457;SDS011;42360;42.918;12.366;2022-07-06T04:49:29;4.53;;;2.97;;
56457;SDS011;42360;42.918;12.366;2022-07-06T04:51:55;9.05;;;3.63;;
56457;SDS011;42360;42.918;12.366;2022-07-06T04:54:20;5.05;;;2.90;;
56457;SDS011;42360;42.918;12.366;2022-07-06T04:56:46;6.63;;;3.40;;
56457;SDS011;42360;42.918;12.366;2022-07-06T04:59:13;4.90;;;3.25;;
56457;SDS011;42360;42.918;12.366;2022-07-06T05:01:38;6.35;;;3.03;;
56457;SDS011;42360;42.918;12.366;2022-07-06T05:04:06;6.57;;;3.08;;
56457;SDS011;42360;42.918;12.366;2022-07-06T05:06:32;5.13;;;3.50;;
56457;SDS011;42360;42.918;12.366;2022-07-06T05:08:57;4.20;;;3.20;;
56457;SDS011;42360;42.918;12.366;2022-07-06T05:11:25;6.28;;;3.13;;
56457;SDS011;42360;42.918;12.366;2022-07-06T05:13:51;5.72;;;3.13;;
56457;SDS011;42360;42.918;12.366;2022-07-06T05:16:17;4.80;;;3.20;;
56457;SDS011;42360;42.918;12.366;2022-07-06T05:18:42;7.80;;;4.55;;
56457;SDS011;42360;42.918;12.366;2022-07-06T05:21:08;6.95;;;3.20;;
56457;SDS011;42360;42.918;12.366;2022-07-06T05:23:33;10.25;;;3.70;;
56457;SDS011;42360;42.918;12.366;2022-07-06T05:25:59;3.80;;;3.42;;
56457;SDS011;42360;42.918;12.366;2022-07-06T05:28:25;4.90;;;3.50;;
56457;SDS011;42360;42.918;12.366;2022-07-06T05:30:50;5.88;;;3.03;;
56457;SDS011;42360;42.918;12.366;2022-07-06T05:33:16;6.53;;;3.33;;
56457;SDS011;42360;42.918;12.366;2022-07-06T05:35:41;5.90;;;4.15;;
56457;SDS011;42360;42.918;12.366;2022-07-06T05:38:07;6.00;;;3.85;;
56457;SDS011;42360;42.918;12.366;2022-07-06T05:40:33;7.22;;;3.50;;
56457;SDS011;42360;42.918;12.366;2022-07-06T05:42:58;5.82;;;3.95;;
56457;SDS011;42360;42.918;12.366;2022-07-06T05:45:24;6.25;;;3.67;;
56457;SDS011;42360;42.918;12.366;2022-07-06T05:47:49;8.48;;;3.47;;
56457;SDS011;42360;42.918;12.366;2022-07-06T05:50:33;7.22;;;3.85;;
56457;SDS011;42360;42.918;12.366;2022-07-06T05:53:00;5.40;;;3.53;;
56457;SDS011;42360;42.918;12.366;2022-07-06T05:55:27;6.90;;;3.40;;
56457;SDS011;42360;42.918;12.366;2022-07-06T05:57:53;7.40;;;3.63;;
56457;SDS011;42360;42.918;12.366;2022-07-06T06:00:19;5.53;;;3.30;;
56457;SDS011;42360;42.918;12.366;2022-07-06T06:02:46;5.68;;;3.65;;
56457;SDS011;42360;42.918;12.366;2022-07-06T06:05:13;4.50;;;3.50;;
56457;SDS011;42360;42.918;12.366;2022-07-06T06:07:39;9.80;;;3.63;;
56457;SDS011;42360;42.918;12.366;2022-07-06T06:10:06;5.15;;;3.53;;
56457;SDS011;42360;42.918;12.366;2022-07-06T06:12:33;5.40;;;3.72;;
56457;SDS011;42360;42.918;12.366;2022-07-06T06:14:58;4.57;;;3.65;;
56457;SDS011;42360;42.918;12.366;2022-07-06T06:17:24;6.15;;;3.53;;
56457;SDS011;42360;42.918;12.366;2022-07-06T06:19:50;7.18;;;3.63;;
56457;SDS011;42360;42.918;12.366;2022-07-06T06:22:15;5.35;;;3.58;;
56457;SDS011;42360;42.918;12.366;2022-07-06T06:24:41;8.90;;;4.03;;
56457;SDS011;42360;42.918;12.366;2022-07-06T06:27:06;4.40;;;3.58;;
56457;SDS011;42360;42.918;12.366;2022-07-06T06:29:32;5.38;;;3.47;;
56457;SDS011;42360;42.918;12.366;2022-07-06T06:31:58;6.85;;;3.88;;
56457;SDS011;42360;42.918;12.366;2022-07-06T06:34:23;5.13;;;4.00;;
56457;SDS011;42360;42.918;12.366;2022-07-06T06:36:49;7.75;;;4.10;;
56457;SDS011;42360;42.918;12.366;2022-07-06T06:39:15;7.55;;;4.05;;
56457;SDS011;42360;42.918;12.366;2022-07-06T06:41:41;10.18;;;4.03;;
56457;SDS011;42360;42.918;12.366;2022-07-06T06:44:07;6.10;;;3.47;;
56457;SDS011;42360;42.918;12.366;2022-07-06T06:46:32;6.78;;;3.20;;
56457;SDS011;42360;42.918;12.366;2022-07-06T06:48:58;7.43;;;3.50;;
56457;SDS011;42360;42.918;12.366;2022-07-06T06:51:23;7.60;;;4.22;;
56457;SDS011;42360;42.918;12.366;2022-07-06T06:53:49;7.05;;;4.13;;
56457;SDS011;42360;42.918;12.366;2022-07-06T06:56:15;5.13;;;3.20;;
56457;SDS011;42360;42.918;12.366;2022-07-06T06:58:40;6.55;;;3.60;;
56457;SDS011;42360;42.918;12.366;2022-07-06T07:01:06;7.65;;;3.15;;
56457;SDS011;42360;42.918;12.366;2022-07-06T07:03:32;8.10;;;3.10;;
56457;SDS011;42360;42.918;12.366;2022-07-06T07:05:57;5.18;;;3.25;;
56457;SDS011;42360;42.918;12.366;2022-07-06T07:08:23;5.82;;;3.22;;
56457;SDS011;42360;42.918;12.366;2022-07-06T07:10:49;8.32;;;3.00;;
56457;SDS011;42360;42.918;12.366;2022-07-06T07:13:14;6.90;;;2.88;;
56457;SDS011;42360;42.918;12.366;2022-07-06T07:15:40;6.88;;;3.30;;
56457;SDS011;42360;42.918;12.366;2022-07-06T07:18:06;6.72;;;3.03;;
56457;SDS011;42360;42.918;12.366;2022-07-06T07:20:31;4.22;;;2.90;;
56457;SDS011;42360;42.918;12.366;2022-07-06T07:22:58;4.75;;;2.60;;
56457;SDS011;42360;42.918;12.366;2022-07-06T07:25:25;4.38;;;2.67;;
56457;SDS011;42360;42.918;12.366;2022-07-06T07:27:51;5.15;;;3.13;;
56457;SDS011;42360;42.918;12.366;2022-07-06T07:30:16;8.63;;;2.83;;
56457;SDS011;42360;42.918;12.366;2022-07-06T07:32:42;6.30;;;2.83;;
56457;SDS011;42360;42.918;12.366;2022-07-06T07:35:08;5.90;;;2.97;;
56457;SDS011;42360;42.918;12.366;2022-07-06T07:37:34;5.10;;;2.95;;
56457;SDS011;42360;42.918;12.366;2022-07-06T07:40:00;4.63;;;2.90;;
56457;SDS011;42360;42.918;12.366;2022-07-06T07:42:26;5.53;;;3.10;;
56457;SDS011;42360;42.918;12.366;2022-07-06T07:44:52;4.00;;;2.50;;
56457;SDS011;42360;42.918;12.366;2022-07-06T07:47:17;8.52;;;2.88;;
56457;SDS011;42360;42.918;12.366;2022-07-06T07:49:43;4.35;;;2.72;;
56457;SDS011;42360;42.918;12.366;2022-07-06T07:52:09;5.57;;;2.55;;
56457;SDS011;42360;42.918;12.366;2022-07-06T07:54:34;7.95;;;2.30;;
56457;SDS011;42360;42.918;12.366;2022-07-06T07:57:00;4.68;;;2.50;;
56457;SDS011;42360;42.918;12.366;2022-07-06T07:59:26;8.95;;;2.88;;
56457;SDS011;42360;42.918;12.366;2022-07-06T08:01:51;5.35;;;2.60;;
56457;SDS011;42360;42.918;12.366;2022-07-06T08:04:17;6.10;;;2.63;;
56457;SDS011;42360;42.918;12.366;2022-07-06T08:06:43;3.42;;;2.50;;
56457;SDS011;42360;42.918;12.366;2022-07-06T08:09:09;4.75;;;2.70;;
56457;SDS011;42360;42.918;12.366;2022-07-06T08:11:34;5.78;;;2.65;;
56457;SDS011;42360;42.918;12.366;2022-07-06T08:14:01;7.68;;;2.38;;
56457;SDS011;42360;42.918;12.366;2022-07-06T08:16:27;5.10;;;2.45;;
56457;SDS011;42360;42.918;12.366;2022-07-06T08:18:53;4.35;;;2.33;;
56457;SDS011;42360;42.918;12.366;2022-07-06T08:21:18;2.75;;;2.03;;
56457;SDS011;42360;42.918;12.366;2022-07-06T08:23:44;4.03;;;2.22;;
56457;SDS011;42360;42.918;12.366;2022-07-06T08:26:09;3.67;;;2.10;;
56457;SDS011;42360;42.918;12.366;2022-07-06T08:28:35;6.00;;;2.10;;
56457;SDS011;42360;42.918;12.366;2022-07-06T08:31:00;3.42;;;1.70;;
56457;SDS011;42360;42.918;12.366;2022-07-06T08:33:26;4.93;;;2.00;;
56457;SDS011;42360;42.918;12.366;2022-07-06T08:35:52;5.78;;;2.40;;
56457;SDS011;42360;42.918;12.366;2022-07-06T08:38:17;3.58;;;2.45;;
56457;SDS011;42360;42.918;12.366;2022-07-06T08:40:43;4.97;;;3.05;;
56457;SDS011;42360;42.918;12.366;2022-07-06T08:43:12;7.15;;;2.45;;
56457;SDS011;42360;42.918;12.366;2022-07-06T08:45:39;4.32;;;2.38;;
56457;SDS011;42360;42.918;12.366;2022-07-06T08:48:06;4.80;;;2.25;;
56457;SDS011;42360;42.918;12.366;2022-07-06T08:50:33;4.85;;;2.10;;
56457;SDS011;42360;42.918;12.366;2022-07-06T08:52:59;4.30;;;2.00;;
56457;SDS011;42360;42.918;12.366;2022-07-06T08:55:25;4.38;;;2.40;;
56457;SDS011;42360;42.918;12.366;2022-07-06T08:57:51;4.68;;;1.95;;
56457;SDS011;42360;42.918;12.366;2022-07-06T09:00:17;7.72;;;2.47;;
56457;SDS011;42360;42.918;12.366;2022-07-06T09:02:43;3.63;;;2.10;;
56457;SDS011;42360;42.918;12.366;2022-07-06T09:05:08;8.02;;;2.88;;
56457;SDS011;42360;42.918;12.366;2022-07-06T09:07:38;4.60;;;2.03;;
56457;SDS011;42360;42.918;12.366;2022-07-06T09:10:05;6.82;;;2.03;;
56457;SDS011;42360;42.918;12.366;2022-07-06T09:12:32;4.63;;;2.33;;
56457;SDS011;42360;42.918;12.366;2022-07-06T09:14:58;4.95;;;2.40;;
56457;SDS011;42360;42.918;12.366;2022-07-06T09:17:29;4.15;;;1.80;;
56457;SDS011;42360;42.918;12.366;2022-07-06T09:19:55;6.45;;;2.40;;
56457;SDS011;42360;42.918;12.366;2022-07-06T09:22:28;4.95;;;1.98;;
56457;SDS011;42360;42.918;12.366;2022-07-06T09:25:06;3.97;;;1.80;;
56457;SDS011;42360;42.918;12.366;2022-07-06T09:30:12;2.72;;;1.98;;
56457;SDS011;42360;42.918;12.366;2022-07-06T09:32:43;4.93;;;1.90;;
56457;SDS011;42360;42.918;12.366;2022-07-06T09:35:24;5.40;;;2.00;;
56457;SDS011;42360;42.918;12.366;2022-07-06T09:38:02;3.60;;;2.00;;
56457;SDS011;42360;42.918;12.366;2022-07-06T09:40:32;3.53;;;1.90;;
56457;SDS011;42360;42.918;12.366;2022-07-06T09:43:09;2.63;;;1.85;;
56457;SDS011;42360;42.918;12.366;2022-07-06T09:45:44;5.88;;;2.10;;
56457;SDS011;42360;42.918;12.366;2022-07-06T09:48:12;3.17;;;1.80;;
56457;SDS011;42360;42.918;12.366;2022-07-06T09:50:43;4.13;;;1.92;;
56457;SDS011;42360;42.918;12.366;2022-07-06T09:53:20;4.93;;;1.95;;
56457;SDS011;42360;42.918;12.366;2022-07-06T09:55:47;3.95;;;2.00;;
56457;SDS011;42360;42.918;12.366;2022-07-06T09:58:14;4.40;;;2.20;;
56457;SDS011;42360;42.918;12.366;2022-07-06T10:00:41;3.00;;;1.85;;
56457;SDS011;42360;42.918;12.366;2022-07-06T10:03:08;4.88;;;1.92;;
56457;SDS011;42360;42.918;12.366;2022-07-06T10:05:37;5.70;;;2.20;;
56457;SDS011;42360;42.918;12.366;2022-07-06T10:08:05;5.32;;;1.70;;
56457;SDS011;42360;42.918;12.366;2022-07-06T10:10:34;1.80;;;1.70;;
56457;SDS011;42360;42.918;12.366;2022-07-06T10:13:00;2.78;;;1.80;;
56457;SDS011;42360;42.918;12.366;2022-07-06T10:15:27;8.20;;;2.00;;
56457;SDS011;42360;42.918;12.366;2022-07-06T10:17:54;4.07;;;2.00;;
56457;SDS011;42360;42.918;12.366;2022-07-06T10:20:20;3.40;;;1.80;;
56457;SDS011;42360;42.918;12.366;2022-07-06T10:22:47;2.08;;;1.67;;
56457;SDS011;42360;42.918;12.366;2022-07-06T10:25:16;4.88;;;1.83;;
56457;SDS011;42360;42.918;12.366;2022-07-06T10:27:43;4.68;;;2.88;;
56457;SDS011;42360;42.918;12.366;2022-07-06T10:30:11;3.28;;;1.60;;
56457;SDS011;42360;42.918;12.366;2022-07-06T10:32:38;3.38;;;2.00;;
56457;SDS011;42360;42.918;12.366;2022-07-06T10:35:04;3.30;;;1.98;;
56457;SDS011;42360;42.918;12.366;2022-07-06T10:37:31;5.43;;;1.80;;
56457;SDS011;42360;42.918;12.366;2022-07-06T10:39:58;2.60;;;1.73;;
56457;SDS011;42360;42.918;12.366;2022-07-06T10:42:44;5.20;;;2.00;;
56457;SDS011;42360;42.918;12.366;2022-07-06T10:45:12;2.72;;;1.50;;
56457;SDS011;42360;42.918;12.366;2022-07-06T10:47:40;2.92;;;2.45;;
56457;SDS011;42360;42.918;12.366;2022-07-06T10:50:06;2.10;;;1.65;;
56457;SDS011;42360;42.918;12.366;2022-07-06T10:52:48;3.65;;;1.52;;
56457;SDS011;42360;42.918;12.366;2022-07-06T10:58:02;2.90;;;1.50;;
56457;SDS011;42360;42.918;12.366;2022-07-06T11:03:32;2.08;;;1.50;;
56457;SDS011;42360;42.918;12.366;2022-07-06T11:05:59;1.88;;;1.70;;
56457;SDS011;42360;42.918;12.366;2022-07-06T11:08:47;4.88;;;1.73;;
56457;SDS011;42360;42.918;12.366;2022-07-06T11:11:15;2.85;;;1.50;;
56457;SDS011;42360;42.918;12.366;2022-07-06T11:14:00;2.90;;;1.48;;
56457;SDS011;42360;42.918;12.366;2022-07-06T11:16:27;4.22;;;1.60;;
56457;SDS011;42360;42.918;12.366;2022-07-06T11:19:02;3.67;;;1.50;;
56457;SDS011;42360;42.918;12.366;2022-07-06T11:24:06;3.30;;;1.70;;
56457;SDS011;42360;42.918;12.366;2022-07-06T11:26:33;3.80;;;1.70;;
56457;SDS011;42360;42.918;12.366;2022-07-06T11:29:02;4.03;;;1.55;;
56457;SDS011;42360;42.918;12.366;2022-07-06T11:31:30;2.95;;;1.55;;
56457;SDS011;42360;42.918;12.366;2022-07-06T11:33:57;12.20;;;2.35;;
56457;SDS011;42360;42.918;12.366;2022-07-06T11:36:23;3.75;;;1.70;;
56457;SDS011;42360;42.918;12.366;2022-07-06T11:38:49;3.95;;;2.08;;
56457;SDS011;42360;42.918;12.366;2022-07-06T11:41:15;4.30;;;2.38;;
56457;SDS011;42360;42.918;12.366;2022-07-06T11:43:45;3.45;;;2.00;;
56457;SDS011;42360;42.918;12.366;2022-07-06T11:48:51;2.70;;;1.40;;
56457;SDS011;42360;42.918;12.366;2022-07-06T11:51:19;2.47;;;1.55;;
56457;SDS011;42360;42.918;12.366;2022-07-06T11:53:45;6.40;;;1.80;;
56457;SDS011;42360;42.918;12.366;2022-07-06T11:56:12;3.40;;;1.98;;
56457;SDS011;42360;42.918;12.366;2022-07-06T11:58:41;5.57;;;1.77;;
56457;SDS011;42360;42.918;12.366;2022-07-06T12:01:09;2.63;;;1.60;;
56457;SDS011;42360;42.918;12.366;2022-07-06T12:03:36;2.95;;;1.80;;
56457;SDS011;42360;42.918;12.366;2022-07-06T12:06:05;3.45;;;1.50;;
56457;SDS011;42360;42.918;12.366;2022-07-06T12:08:32;3.15;;;1.77;;
56457;SDS011;42360;42.918;12.366;2022-07-06T12:11:05;2.55;;;1.63;;
56457;SDS011;42360;42.918;12.366;2022-07-06T12:13:35;3.30;;;1.83;;
56457;SDS011;42360;42.918;12.366;2022-07-06T12:16:10;3.25;;;1.85;;
56457;SDS011;42360;42.918;12.366;2022-07-06T12:18:37;3.05;;;2.13;;
56457;SDS011;42360;42.918;12.366;2022-07-06T12:21:04;4.20;;;1.77;;
56457;SDS011;42360;42.918;12.366;2022-07-06T12:23:41;5.55;;;1.77;;
56457;SDS011;42360;42.918;12.366;2022-07-06T12:26:08;3.22;;;1.73;;
56457;SDS011;42360;42.918;12.366;2022-07-06T12:28:34;2.63;;;1.75;;
56457;SDS011;42360;42.918;12.366;2022-07-06T12:31:00;8.38;;;1.80;;
56457;SDS011;42360;42.918;12.366;2022-07-06T12:33:26;3.33;;;1.67;;
56457;SDS011;42360;42.918;12.366;2022-07-06T12:35:53;4.75;;;1.85;;
56457;SDS011;42360;42.918;12.366;2022-07-06T12:38:25;5.22;;;1.90;;
56457;SDS011;42360;42.918;12.366;2022-07-06T12:40:52;4.15;;;2.00;;
56457;SDS011;42360;42.918;12.366;2022-07-06T12:43:39;2.30;;;1.83;;
56457;SDS011;42360;42.918;12.366;2022-07-06T12:49:00;3.17;;;1.80;;
56457;SDS011;42360;42.918;12.366;2022-07-06T12:51:28;3.50;;;1.70;;
56457;SDS011;42360;42.918;12.366;2022-07-06T12:54:11;4.03;;;1.80;;
56457;SDS011;42360;42.918;12.366;2022-07-06T12:56:55;3.97;;;1.80;;
56457;SDS011;42360;42.918;12.366;2022-07-06T12:59:24;1.95;;;1.73;;
56457;SDS011;42360;42.918;12.366;2022-07-06T13:01:50;4.55;;;1.90;;
56457;SDS011;42360;42.918;12.366;2022-07-06T13:04:21;2.72;;;1.60;;
56457;SDS011;42360;42.918;12.366;2022-07-06T13:06:48;4.03;;;1.60;;
56457;SDS011;42360;42.918;12.366;2022-07-06T13:09:13;2.78;;;1.75;;
56457;SDS011;42360;42.918;12.366;2022-07-06T13:11:40;2.75;;;1.60;;
56457;SDS011;42360;42.918;12.366;2022-07-06T13:14:07;1.80;;;1.70;;
56457;SDS011;42360;42.918;12.366;2022-07-06T13:16:34;3.67;;;1.80;;
56457;SDS011;42360;42.918;12.366;2022-07-06T13:19:00;2.63;;;1.80;;
56457;SDS011;42360;42.918;12.366;2022-07-06T13:21:26;4.05;;;1.80;;
56457;SDS011;42360;42.918;12.366;2022-07-06T13:23:52;3.03;;;1.85;;
56457;SDS011;42360;42.918;12.366;2022-07-06T13:26:17;3.97;;;1.60;;
56457;SDS011;42360;42.918;12.366;2022-07-06T13:28:43;3.83;;;1.77;;
56457;SDS011;42360;42.918;12.366;2022-07-06T13:31:09;3.50;;;2.15;;
56457;SDS011;42360;42.918;12.366;2022-07-06T13:33:34;3.13;;;1.70;;
56457;SDS011;42360;42.918;12.366;2022-07-06T13:36:00;5.30;;;2.13;;
56457;SDS011;42360;42.918;12.366;2022-07-06T13:38:26;3.03;;;2.00;;
56457;SDS011;42360;42.918;12.366;2022-07-06T13:40:52;4.65;;;1.95;;
56457;SDS011;42360;42.918;12.366;2022-07-06T13:43:18;4.68;;;2.00;;
56457;SDS011;42360;42.918;12.366;2022-07-06T13:45:44;7.13;;;2.00;;
56457;SDS011;42360;42.918;12.366;2022-07-06T13:48:11;3.13;;;1.88;;
56457;SDS011;42360;42.918;12.366;2022-07-06T13:50:37;5.68;;;1.90;;
56457;SDS011;42360;42.918;12.366;2022-07-06T13:53:02;3.60;;;2.45;;
56457;SDS011;42360;42.918;12.366;2022-07-06T13:55:29;5.03;;;2.10;;
56457;SDS011;42360;42.918;12.366;2022-07-06T13:57:55;2.22;;;1.60;;
56457;SDS011;42360;42.918;12.366;2022-07-06T14:00:21;3.25;;;2.33;;
56457;SDS011;42360;42.918;12.366;2022-07-06T14:02:47;3.35;;;1.73;;
56457;SDS011;42360;42.918;12.366;2022-07-06T14:05:12;10.05;;;2.50;;
56457;SDS011;42360;42.918;12.366;2022-07-06T14:07:38;10.68;;;2.75;;
56457;SDS011;42360;42.918;12.366;2022-07-06T14:10:04;12.23;;;2.53;;
56457;SDS011;42360;42.918;12.366;2022-07-06T14:12:30;5.10;;;2.10;;
56457;SDS011;42360;42.918;12.366;2022-07-06T14:14:55;7.40;;;2.45;;
56457;SDS011;42360;42.918;12.366;2022-07-06T14:17:21;6.00;;;2.10;;
56457;SDS011;42360;42.918;12.366;2022-07-06T14:19:47;5.00;;;2.30;;
56457;SDS011;42360;42.918;12.366;2022-07-06T14:22:13;4.47;;;2.10;;
56457;SDS011;42360;42.918;12.366;2022-07-06T14:24:39;4.28;;;2.10;;
56457;SDS011;42360;42.918;12.366;2022-07-06T14:27:05;2.67;;;2.00;;
56457;SDS011;42360;42.918;12.366;2022-07-06T14:29:30;5.75;;;2.22;;
56457;SDS011;42360;42.918;12.366;2022-07-06T14:31:56;3.28;;;2.20;;
56457;SDS011;42360;42.918;12.366;2022-07-06T14:34:21;7.88;;;2.50;;
56457;SDS011;42360;42.918;12.366;2022-07-06T14:36:47;7.50;;;2.22;;
56457;SDS011;42360;42.918;12.366;2022-07-06T14:39:13;8.68;;;2.72;;
56457;SDS011;42360;42.918;12.366;2022-07-06T14:41:38;3.90;;;2.50;;
56457;SDS011;42360;42.918;12.366;2022-07-06T14:44:04;6.72;;;2.05;;
56457;SDS011;42360;42.918;12.366;2022-07-06T14:46:30;4.60;;;2.08;;
56457;SDS011;42360;42.918;12.366;2022-07-06T14:48:57;4.78;;;2.10;;
56457;SDS011;42360;42.918;12.366;2022-07-06T14:51:22;5.43;;;2.63;;